Time;durP1;ratioP1;P1;durP2;ratioP2;P2;SDS_P1;SDS_P2;PMS_P1;PMS_P2;Temp;Humidity;BMP_temperature;BMP_pressure;BME280_temperature;BME280_humidity;BME280_pressure;Samples;Min_cycle;Max_cycle;Signal;HPM_P1;HPM_P2
2022/10/13 00:01:45;;;;;;;19.48;11.10;;;9.90;88.80;;;;;;5011204;28;20450;-48
2022/10/13 00:04:11;;;;;;;24.17;12.10;;;9.80;88.70;;;;;;5011345;28;20057;-48
2022/10/13 00:06:36;;;;;;;19.27;10.52;;;9.80;88.80;;;;;;5011468;28;20049;-48
2022/10/13 00:09:03;;;;;;;25.88;12.73;;;9.80;88.90;;;;;;5011210;28;20030;-48
2022/10/13 00:11:29;;;;;;;23.50;10.88;;;9.80;88.90;;;;;;5010794;28;20522;-48
2022/10/13 00:13:57;;;;;;;16.40;11.13;;;9.70;88.80;;;;;;5011088;28;20052;-48
2022/10/13 00:16:23;;;;;;;20.20;12.63;;;9.70;88.80;;;;;;5011093;28;20030;-50
2022/10/13 00:18:49;;;;;;;22.00;11.90;;;9.70;88.90;;;;;;5011169;28;20359;-48
2022/10/13 00:21:17;;;;;;;22.70;11.57;;;9.60;88.80;;;;;;5010874;28;20033;-48
2022/10/13 00:23:43;;;;;;;20.85;10.65;;;9.60;88.90;;;;;;5010892;28;20022;-47
2022/10/13 00:26:12;;;;;;;22.10;11.77;;;9.50;88.90;;;;;;5011137;28;20526;-48
2022/10/13 00:28:38;;;;;;;17.88;10.73;;;9.50;89.00;;;;;;5011182;28;20018;-47
2022/10/13 00:31:19;;;;;;;14.95;10.07;;;9.40;89.00;;;;;;5010747;28;20017;-47
2022/10/13 00:33:45;;;;;;;17.38;10.27;;;9.40;89.20;;;;;;5010897;28;20026;-49
2022/10/13 00:36:11;;;;;;;22.45;10.80;;;9.30;89.20;;;;;;5010870;28;20030;-48
2022/10/13 00:38:37;;;;;;;20.40;12.63;;;9.30;89.40;;;;;;5010713;28;20075;-48
2022/10/13 00:41:03;;;;;;;19.80;10.38;;;9.30;89.50;;;;;;5009277;28;20026;-49
2022/10/13 00:43:50;;;;;;;18.25;10.40;;;9.30;89.60;;;;;;5009503;28;20377;-50
2022/10/13 00:46:16;;;;;;;17.10;10.82;;;9.30;89.70;;;;;;5010854;28;20464;-48
2022/10/13 00:48:43;;;;;;;21.35;10.93;;;9.30;89.70;;;;;;5010829;28;20026;-51
2022/10/13 00:51:11;;;;;;;17.95;10.80;;;9.30;89.90;;;;;;5010456;28;20022;-47
2022/10/13 00:53:38;;;;;;;20.70;9.93;;;9.30;89.90;;;;;;5010875;28;20373;-48
2022/10/13 00:56:08;;;;;;;23.17;12.07;;;9.30;89.90;;;;;;5010509;28;20014;-47
2022/10/13 00:58:37;;;;;;;19.50;10.23;;;9.30;90.00;;;;;;5009157;28;20425;-47
2022/10/13 01:01:04;;;;;;;19.13;11.60;;;9.30;90.00;;;;;;5010147;28;20029;-50
2022/10/13 01:03:30;;;;;;;20.02;10.70;;;9.40;90.00;;;;;;5010983;28;20087;-49
2022/10/13 01:05:58;;;;;;;16.55;11.15;;;9.40;89.90;;;;;;5010319;28;20026;-50
2022/10/13 01:08:26;;;;;;;17.10;11.07;;;9.40;89.90;;;;;;5010316;28;20049;-49
2022/10/13 01:11:13;;;;;;;18.77;10.23;;;9.40;89.80;;;;;;5009998;28;20026;-49
2022/10/13 01:13:52;;;;;;;23.15;11.43;;;9.40;89.90;;;;;;5010167;28;20037;-48
2022/10/13 01:16:38;;;;;;;18.98;11.68;;;9.50;89.90;;;;;;5010336;28;20059;-49
2022/10/13 01:19:31;;;;;;;25.98;11.85;;;9.40;89.90;;;;;;5010340;28;20096;-48
2022/10/13 01:21:57;;;;;;;18.23;10.75;;;9.50;90.00;;;;;;5010510;28;20026;-48
2022/10/13 01:24:29;;;;;;;16.00;10.48;;;9.40;90.00;;;;;;5012622;28;20534;-50
2022/10/13 01:27:04;;;;;;;21.65;11.57;;;9.40;90.00;;;;;;5013665;28;20029;-47
2022/10/13 01:30:04;;;;;;;21.83;11.43;;;9.50;90.10;;;;;;5013905;28;20075;-50
2022/10/13 01:32:51;;;;;;;21.58;11.65;;;9.50;90.20;;;;;;5013580;28;20059;-50
2022/10/13 01:35:27;;;;;;;22.27;13.25;;;9.50;90.20;;;;;;5013772;28;20140;-49
2022/10/13 01:38:12;;;;;;;49.80;29.80;;;9.50;90.20;;;;;;5013409;28;20079;-49
2022/10/13 01:40:57;;;;;;;56.67;31.85;;;9.60;90.40;;;;;;5013355;28;20178;-48
2022/10/13 01:43:29;;;;;;;43.60;28.75;;;9.80;90.30;;;;;;5012347;28;20033;-48
2022/10/13 01:46:18;;;;;;;56.90;33.08;;;9.80;90.20;;;;;;5013352;28;20385;-51
2022/10/13 01:48:45;;;;;;;75.82;38.88;;;9.90;90.00;;;;;;5013785;28;20029;-48
2022/10/13 01:51:17;;;;;;;47.47;27.55;;;9.90;89.90;;;;;;5013600;28;20037;-49
2022/10/13 01:53:45;;;;;;;55.95;29.70;;;10.00;89.50;;;;;;5013554;28;20022;-48
2022/10/13 01:56:11;;;;;;;57.13;29.98;;;10.10;89.70;;;;;;5013351;28;20587;-49
2022/10/13 01:58:37;;;;;;;46.83;25.98;;;10.10;89.50;;;;;;5011807;28;20112;-49
2022/10/13 02:01:21;;;;;;;31.35;18.95;;;10.10;89.60;;;;;;5013185;28;20105;-49
2022/10/13 02:04:02;;;;;;;32.38;18.83;;;10.10;89.60;;;;;;5013176;28;20037;-48
2022/10/13 02:06:42;;;;;;;33.55;21.15;;;10.10;89.50;;;;;;5011782;28;20064;-51
2022/10/13 02:09:11;;;;;;;40.30;20.00;;;10.20;89.70;;;;;;5013326;28;20029;-48
2022/10/13 02:11:45;;;;;;;30.05;17.00;;;10.30;89.80;;;;;;5012846;28;20514;-49
2022/10/13 02:14:32;;;;;;;31.58;18.27;;;10.30;89.50;;;;;;5013225;28;20457;-49
2022/10/13 02:17:02;;;;;;;32.58;16.92;;;10.30;89.50;;;;;;5012849;28;20014;-47
2022/10/13 02:19:29;;;;;;;22.95;14.77;;;10.30;89.50;;;;;;5013248;28;20319;-48
2022/10/13 02:21:57;;;;;;;32.65;15.95;;;10.30;89.30;;;;;;5013003;28;20382;-48
2022/10/13 02:24:23;;;;;;;23.73;12.45;;;10.30;89.20;;;;;;5013111;28;20117;-48
2022/10/13 02:26:50;;;;;;;28.95;14.00;;;10.30;89.20;;;;;;5011438;28;20049;-50
2022/10/13 02:29:17;;;;;;;22.98;13.10;;;10.40;89.30;;;;;;5012763;28;20022;-48
2022/10/13 02:31:44;;;;;;;22.23;12.43;;;10.50;89.30;;;;;;5011523;28;20018;-48
2022/10/13 02:34:11;;;;;;;20.90;13.70;;;10.50;89.00;;;;;;5010808;28;20034;-48
2022/10/13 02:36:37;;;;;;;19.70;11.85;;;10.60;89.10;;;;;;5012608;28;20339;-48
2022/10/13 02:39:04;;;;;;;21.15;11.38;;;10.70;89.20;;;;;;5012512;28;20052;-49
2022/10/13 02:41:30;;;;;;;22.48;12.45;;;10.70;88.80;;;;;;5011253;28;20117;-49
2022/10/13 02:43:55;;;;;;;29.55;12.70;;;10.70;88.80;;;;;;5012342;28;20513;-49
2022/10/13 02:46:21;;;;;;;28.02;12.45;;;10.60;88.80;;;;;;5012774;28;20022;-47
2022/10/13 02:48:47;;;;;;;22.33;10.27;;;10.70;89.00;;;;;;5012524;28;20101;-51
2022/10/13 02:51:12;;;;;;;16.10;9.38;;;10.80;89.00;;;;;;5012239;28;20033;-48
2022/10/13 02:53:38;;;;;;;19.85;11.02;;;10.80;89.00;;;;;;5012499;28;20033;-49
2022/10/13 02:56:04;;;;;;;21.73;12.00;;;10.90;88.70;;;;;;5012332;28;20378;-49
2022/10/13 02:58:30;;;;;;;15.27;10.20;;;10.90;88.60;;;;;;5012187;28;20073;-49
2022/10/13 03:01:14;;;;;;;18.20;10.40;;;10.90;88.50;;;;;;5011953;28;20049;-49
2022/10/13 03:03:40;;;;;;;17.67;9.68;;;11.00;88.30;;;;;;5012424;28;20022;-49
2022/10/13 03:06:06;;;;;;;17.30;9.70;;;11.00;88.30;;;;;;5012105;28;20074;-49
2022/10/13 03:08:33;;;;;;;23.77;10.70;;;11.00;88.30;;;;;;5011980;28;20026;-47
2022/10/13 03:10:59;;;;;;;21.55;10.25;;;11.10;88.20;;;;;;5011884;28;20112;-48
2022/10/13 03:13:25;;;;;;;20.55;10.73;;;11.30;87.90;;;;;;5012606;28;20434;-49
2022/10/13 03:15:51;;;;;;;20.52;9.95;;;11.20;87.70;;;;;;5012023;28;20078;-50
2022/10/13 03:18:16;;;;;;;21.23;10.68;;;11.20;87.90;;;;;;5012175;28;20108;-51
2022/10/13 03:20:42;;;;;;;20.88;10.70;;;11.20;87.80;;;;;;5011813;28;20026;-48
2022/10/13 03:23:08;;;;;;;16.58;9.50;;;11.30;87.60;;;;;;5011975;28;20033;-48
2022/10/13 03:25:34;;;;;;;17.75;9.82;;;11.30;87.70;;;;;;5011658;28;20049;-49
2022/10/13 03:28:00;;;;;;;21.58;10.52;;;11.30;87.70;;;;;;5010354;28;20018;-49
2022/10/13 03:30:26;;;;;;;20.33;11.95;;;11.30;87.60;;;;;;5010348;28;20082;-48
2022/10/13 03:32:51;;;;;;;24.60;11.20;;;11.30;87.40;;;;;;5011572;28;20026;-48
2022/10/13 03:35:17;;;;;;;15.80;10.38;;;11.40;87.30;;;;;;5012274;28;20022;-48
2022/10/13 03:37:43;;;;;;;20.13;10.45;;;11.30;87.40;;;;;;5011561;28;20029;-49
2022/10/13 03:40:09;;;;;;;16.95;9.60;;;11.30;87.70;;;;;;5011464;28;20401;-48
2022/10/13 03:42:35;;;;;;;17.65;9.55;;;11.20;87.90;;;;;;5011379;28;20105;-48
2022/10/13 03:45:02;;;;;;;17.38;9.32;;;11.20;87.90;;;;;;5011358;28;20022;-48
2022/10/13 03:47:28;;;;;;;12.48;8.60;;;11.20;87.80;;;;;;5010581;28;20022;-49
2022/10/13 03:49:54;;;;;;;15.00;9.75;;;11.20;88.00;;;;;;5011716;28;20116;-48
2022/10/13 03:52:21;;;;;;;14.18;9.38;;;11.30;87.70;;;;;;5011559;28;20106;-51
2022/10/13 03:54:47;;;;;;;19.90;10.75;;;11.30;87.60;;;;;;5011269;28;20038;-48
2022/10/13 03:57:12;;;;;;;26.75;10.73;;;11.30;87.30;;;;;;5011551;28;20054;-48
2022/10/13 03:59:39;;;;;;;18.25;9.60;;;11.30;87.60;;;;;;5011523;28;20441;-48
2022/10/13 04:02:06;;;;;;;17.77;8.98;;;11.30;87.60;;;;;;5011336;28;20529;-48
2022/10/13 04:04:31;;;;;;;19.35;9.52;;;11.30;87.70;;;;;;5011353;28;20026;-49
2022/10/13 04:06:57;;;;;;;15.35;9.68;;;11.30;87.90;;;;;;5011122;28;20389;-49
2022/10/13 04:09:23;;;;;;;21.67;10.73;;;11.30;87.80;;;;;;5011172;28;20450;-49
2022/10/13 04:11:50;;;;;;;19.33;8.95;;;11.20;87.90;;;;;;5011001;28;20542;-47
2022/10/13 04:14:16;;;;;;;16.88;9.70;;;11.20;88.00;;;;;;5011338;28;20521;-49
2022/10/13 04:16:41;;;;;;;18.65;9.70;;;11.20;88.20;;;;;;5011224;28;20022;-51
2022/10/13 04:19:10;;;;;;;19.20;10.02;;;11.30;88.20;;;;;;5011027;28;20029;-49
2022/10/13 04:21:35;;;;;;;21.98;10.35;;;11.30;88.10;;;;;;5010854;28;20405;-48
2022/10/13 04:24:03;;;;;;;16.05;9.43;;;11.30;87.90;;;;;;5010911;28;20018;-48
2022/10/13 04:26:31;;;;;;;21.13;10.85;;;11.20;88.00;;;;;;5010885;28;20071;-48
2022/10/13 04:28:58;;;;;;;17.52;10.05;;;11.20;88.30;;;;;;5009887;28;20022;-47
2022/10/13 04:31:24;;;;;;;15.57;10.00;;;11.20;88.40;;;;;;5010789;28;20505;-50
2022/10/13 04:33:52;;;;;;;14.00;8.32;;;11.20;88.40;;;;;;5011038;28;20021;-50
2022/10/13 04:36:18;;;;;;;15.75;9.45;;;11.30;88.40;;;;;;5010717;28;20481;-48
2022/10/13 04:38:44;;;;;;;20.02;9.77;;;11.30;88.30;;;;;;5009580;28;20082;-50
2022/10/13 04:41:10;;;;;;;21.77;9.48;;;11.40;88.20;;;;;;5010544;28;20100;-50
2022/10/13 04:43:36;;;;;;;17.55;9.65;;;11.40;87.90;;;;;;5010735;28;20033;-49
2022/10/13 04:46:18;;;;;;;16.77;9.07;;;11.40;87.80;;;;;;5010948;28;20109;-49
2022/10/13 04:48:44;;;;;;;21.27;10.30;;;11.40;87.70;;;;;;5010573;28;20095;-49
2022/10/13 04:51:13;;;;;;;18.55;9.52;;;11.40;87.80;;;;;;5010714;28;20097;-48
2022/10/13 04:53:40;;;;;;;18.73;10.50;;;11.30;87.90;;;;;;5010424;28;20109;-47
2022/10/13 04:56:08;;;;;;;18.50;10.30;;;11.40;88.00;;;;;;5010799;28;20056;-47
2022/10/13 04:58:35;;;;;;;27.80;10.73;;;11.40;87.50;;;;;;5010166;28;20550;-49
2022/10/13 05:01:02;;;;;;;22.42;11.70;;;11.40;87.90;;;;;;5008950;28;20116;-48
2022/10/13 05:03:27;;;;;;;17.48;10.43;;;11.40;87.90;;;;;;5010583;28;20109;-50
2022/10/13 05:05:53;;;;;;;17.85;9.60;;;11.40;87.60;;;;;;5010406;28;20105;-47
2022/10/13 05:08:20;;;;;;;19.40;10.50;;;11.50;87.90;;;;;;5010503;28;20018;-49
2022/10/13 05:10:59;;;;;;;17.85;9.85;;;11.50;87.50;;;;;;5010295;28;20493;-48
2022/10/13 05:13:26;;;;;;;24.05;10.68;;;11.50;87.50;;;;;;5010188;28;20477;-48
2022/10/13 05:15:53;;;;;;;19.13;10.18;;;11.50;87.60;;;;;;5010506;28;20026;-49
2022/10/13 05:18:18;;;;;;;27.08;10.40;;;11.60;87.30;;;;;;5010336;28;20026;-48
2022/10/13 05:20:45;;;;;;;21.70;9.52;;;11.60;87.20;;;;;;5011918;28;20334;-48
2022/10/13 05:23:11;;;;;;;22.85;9.68;;;11.50;87.30;;;;;;5011128;28;20037;-47
2022/10/13 05:25:37;;;;;;;22.08;10.30;;;11.40;87.40;;;;;;5011151;28;20030;-48
2022/10/13 05:28:04;;;;;;;17.10;9.32;;;11.40;87.60;;;;;;5011012;28;20034;-49
2022/10/13 05:30:30;;;;;;;17.65;9.55;;;11.50;87.70;;;;;;5010726;28;20026;-48
2022/10/13 05:32:56;;;;;;;26.65;11.10;;;11.50;87.60;;;;;;5011034;28;20041;-49
2022/10/13 05:35:22;;;;;;;29.90;10.63;;;11.60;87.40;;;;;;5011570;28;20041;-48
2022/10/13 05:37:48;;;;;;;16.20;9.30;;;11.50;87.30;;;;;;5011558;28;20026;-47
2022/10/13 05:40:14;;;;;;;24.48;11.20;;;11.50;87.60;;;;;;5010922;28;20404;-48
2022/10/13 05:42:40;;;;;;;20.45;9.38;;;11.50;87.60;;;;;;5011031;28;20193;-48
2022/10/13 16:57:04;;;;;;;26.70;12.57;;;14.00;89.80;;;;;;5152694;27;20280;-49
2022/10/13 16:59:31;;;;;;;26.88;17.50;;;14.00;89.90;;;;;;5131841;27;20101;-50
2022/10/13 17:01:58;;;;;;;24.70;13.50;;;14.00;90.10;;;;;;5130382;28;20034;-53
2022/10/13 17:04:23;;;;;;;20.05;11.90;;;14.10;90.00;;;;;;5131465;27;20027;-52
2022/10/13 17:06:49;;;;;;;30.90;13.50;;;14.10;90.10;;;;;;5131405;28;20046;-51
2022/10/13 17:09:15;;;;;;;29.38;12.93;;;14.10;90.20;;;;;;5131838;28;20102;-51
2022/10/13 17:11:45;;;;;;;24.23;11.60;;;14.20;90.20;;;;;;5131991;27;20020;-41
2022/10/13 17:14:11;;;;;;;21.30;11.98;;;14.20;89.90;;;;;;5129653;28;20027;-40
2022/10/13 17:16:37;;;;;;;23.10;12.73;;;14.10;90.00;;;;;;5130817;27;20114;-40
2022/10/13 17:19:03;;;;;;;26.67;12.90;;;14.20;90.00;;;;;;5129723;28;20114;-40
2022/10/13 17:21:29;;;;;;;23.38;13.38;;;14.20;90.10;;;;;;5129764;28;20113;-39
2022/10/13 17:23:56;;;;;;;32.92;14.30;;;14.20;89.90;;;;;;5129642;28;20024;-39
2022/10/13 17:26:21;;;;;;;24.63;13.63;;;14.10;90.20;;;;;;5131454;27;20035;-39
2022/10/13 17:28:47;;;;;;;21.67;12.68;;;14.00;90.20;;;;;;5131338;27;20367;-40
2022/10/13 17:31:23;;;;;;;30.58;14.07;;;13.90;90.60;;;;;;5131017;27;20027;-40
2022/10/13 17:33:49;;;;;;;24.95;13.68;;;13.80;91.30;;;;;;5129466;28;20475;-40
2022/10/13 17:36:24;;;;;;;23.83;13.05;;;13.80;91.50;;;;;;5130742;27;20112;-40
2022/10/13 17:38:51;;;;;;;26.67;14.73;;;13.70;91.80;;;;;;5128046;28;20126;-39
2022/10/13 17:41:17;;;;;;;24.35;15.23;;;13.80;92.00;;;;;;5108539;28;20019;-39
2022/10/13 17:43:43;;;;;;;25.33;14.85;;;13.70;92.20;;;;;;5110036;28;20209;-40
2022/10/13 17:46:14;;;;;;;23.50;13.57;;;13.60;92.30;;;;;;5111932;28;20059;-39
2022/10/13 17:48:41;;;;;;;23.58;13.75;;;13.70;92.70;;;;;;5114444;28;20438;-41
2022/10/13 17:51:10;;;;;;;25.52;13.10;;;13.60;92.70;;;;;;5111638;28;20015;-41
2022/10/13 17:53:37;;;;;;;27.70;14.23;;;13.60;92.70;;;;;;5111299;28;20032;-41
2022/10/13 17:56:06;;;;;;;21.92;14.40;;;13.60;92.80;;;;;;5110060;28;20043;-39
2022/10/13 17:58:36;;;;;;;23.38;13.85;;;13.50;92.80;;;;;;5110432;28;20031;-39
2022/10/13 18:01:08;;;;;;;29.07;14.10;;;13.60;92.80;;;;;;5108738;28;20048;-40
2022/10/13 18:03:36;;;;;;;23.92;15.77;;;13.50;92.80;;;;;;5109608;28;20011;-39
2022/10/13 18:06:02;;;;;;;24.02;13.75;;;13.50;92.90;;;;;;5108178;28;20031;-39
2022/10/13 18:08:27;;;;;;;23.65;13.70;;;13.50;93.00;;;;;;5094430;28;20024;-40
2022/10/13 18:10:53;;;;;;;25.05;14.00;;;13.50;93.10;;;;;;5096172;28;20035;-39
2022/10/13 18:13:18;;;;;;;25.35;14.10;;;13.50;93.00;;;;;;5095941;28;20035;-40
2022/10/13 18:15:44;;;;;;;27.05;15.18;;;13.50;92.90;;;;;;5096049;28;20509;-40
2022/10/13 18:18:11;;;;;;;27.00;13.57;;;13.50;92.80;;;;;;5095816;28;20020;-40
2022/10/13 18:20:37;;;;;;;21.90;13.45;;;13.50;92.90;;;;;;5096123;28;20028;-40
2022/10/13 18:23:04;;;;;;;27.73;16.50;;;13.50;92.90;;;;;;5096314;28;20020;-39
2022/10/13 18:25:34;;;;;;;26.52;14.15;;;13.40;92.90;;;;;;5096010;28;20024;-39
2022/10/13 18:28:00;;;;;;;25.10;15.15;;;13.40;93.00;;;;;;5095718;28;20043;-39
2022/10/13 18:30:25;;;;;;;23.70;13.63;;;13.50;93.20;;;;;;5095760;28;20032;-41
2022/10/13 18:32:51;;;;;;;21.55;13.20;;;13.40;93.20;;;;;;5096088;28;20029;-39
2022/10/13 18:35:16;;;;;;;27.13;14.50;;;13.50;93.10;;;;;;5095605;28;20104;-42
2022/10/13 18:37:42;;;;;;;21.38;13.63;;;13.50;93.00;;;;;;5096272;28;20043;-39
2022/10/13 18:40:08;;;;;;;24.48;13.18;;;13.60;93.10;;;;;;5096035;28;20020;-39
2022/10/13 18:42:34;;;;;;;26.75;14.13;;;13.50;92.90;;;;;;5095530;28;20020;-39
2022/10/13 18:44:59;;;;;;;25.17;13.48;;;13.50;92.80;;;;;;5095436;28;20047;-40
2022/10/13 18:47:25;;;;;;;21.00;13.48;;;13.60;92.80;;;;;;5095241;28;20047;-39
2022/10/13 18:49:51;;;;;;;24.92;14.93;;;13.60;92.80;;;;;;5095407;28;20472;-41
2022/10/13 18:52:16;;;;;;;22.90;13.10;;;13.60;92.70;;;;;;5095428;28;20027;-39
2022/10/13 18:54:44;;;;;;;24.98;14.40;;;13.50;92.80;;;;;;5094904;28;20494;-41
2022/10/13 18:57:10;;;;;;;27.90;14.20;;;13.50;92.80;;;;;;5095777;28;20028;-40
2022/10/13 18:59:37;;;;;;;25.92;14.82;;;13.50;93.00;;;;;;5095480;28;20085;-39
2022/10/13 19:02:03;;;;;;;32.30;15.18;;;13.60;92.90;;;;;;5095500;28;20020;-40
2022/10/13 19:04:30;;;;;;;30.90;15.95;;;13.60;92.90;;;;;;5077025;28;20089;-38
2022/10/13 19:06:55;;;;;;;30.80;15.73;;;13.60;92.80;;;;;;5095500;28;20027;-39
2022/10/13 19:09:23;;;;;;;29.98;16.25;;;13.60;92.60;;;;;;5095233;28;20072;-39
2022/10/13 19:11:48;;;;;;;29.55;16.02;;;13.70;92.90;;;;;;5094947;28;20052;-39
2022/10/13 19:14:14;;;;;;;26.98;16.05;;;13.70;92.60;;;;;;5094593;28;20480;-39
2022/10/13 19:16:42;;;;;;;23.33;14.73;;;13.70;92.50;;;;;;5094848;28;20073;-39
2022/10/13 19:19:08;;;;;;;30.05;15.00;;;13.50;92.60;;;;;;5094391;28;20055;-39
2022/10/13 19:21:35;;;;;;;28.48;14.73;;;13.50;92.70;;;;;;5094038;28;20032;-39
2022/10/13 19:24:01;;;;;;;28.23;14.55;;;13.70;92.70;;;;;;5094714;28;20016;-39
2022/10/13 19:26:29;;;;;;;22.65;13.45;;;13.60;92.50;;;;;;5095308;28;20050;-51
2022/10/13 19:29:01;;;;;;;24.15;14.68;;;13.60;92.60;;;;;;5095226;28;20028;-49
2022/10/13 19:31:32;;;;;;;25.27;15.48;;;13.60;92.60;;;;;;5094831;28;20053;-48
2022/10/13 19:33:58;;;;;;;26.83;17.88;;;13.70;92.50;;;;;;5094061;28;20471;-49
2022/10/13 19:36:30;;;;;;;33.10;17.55;;;13.70;92.60;;;;;;5094983;28;20020;-51
2022/10/13 19:38:57;;;;;;;34.40;19.83;;;13.60;92.50;;;;;;5095099;28;20032;-50
2022/10/13 19:41:23;;;;;;;30.67;17.20;;;13.70;92.40;;;;;;5094411;28;20024;-50
2022/10/13 19:43:49;;;;;;;27.13;17.52;;;13.60;92.40;;;;;;5095150;28;20024;-49
2022/10/13 19:46:16;;;;;;;36.00;19.17;;;13.60;92.40;;;;;;5094539;28;20032;-51
2022/10/13 19:48:43;;;;;;;31.08;18.23;;;13.60;92.40;;;;;;5094659;28;20438;-51
2022/10/13 19:51:10;;;;;;;35.75;19.63;;;13.70;92.50;;;;;;5094380;28;20024;-49
2022/10/13 19:53:36;;;;;;;41.03;21.45;;;13.60;92.50;;;;;;5094446;28;20059;-49
2022/10/13 19:56:03;;;;;;;32.72;20.50;;;13.70;92.50;;;;;;5093834;28;20063;-49
2022/10/13 19:58:28;;;;;;;35.13;18.60;;;13.60;92.50;;;;;;5094157;28;20035;-51
2022/10/13 20:00:54;;;;;;;31.73;18.95;;;13.60;92.60;;;;;;5093931;28;20032;-51
2022/10/13 20:03:20;;;;;;;40.95;21.52;;;13.60;92.70;;;;;;5094204;28;20092;-49
2022/10/13 20:05:45;;;;;;;35.00;20.25;;;13.70;92.60;;;;;;5093864;28;20050;-50
2022/10/13 20:08:12;;;;;;;44.75;21.48;;;13.70;92.60;;;;;;5093760;28;20031;-49
2022/10/13 20:10:40;;;;;;;40.20;22.67;;;13.70;92.60;;;;;;5093955;28;20024;-49
2022/10/13 20:13:06;;;;;;;37.05;20.33;;;13.70;92.50;;;;;;5094615;28;20154;-51
2022/10/13 20:15:32;;;;;;;40.30;21.65;;;13.60;92.50;;;;;;5094015;28;20024;-51
2022/10/13 20:17:58;;;;;;;35.88;22.63;;;13.60;92.70;;;;;;5093615;28;20024;-52
2022/10/13 20:20:24;;;;;;;34.55;21.17;;;13.70;92.80;;;;;;5093848;28;20093;-49
2022/10/13 20:22:50;;;;;;;37.55;21.95;;;13.70;92.70;;;;;;5093712;28;20357;-49
2022/10/13 20:25:18;;;;;;;45.95;23.40;;;13.60;92.70;;;;;;5093588;28;20103;-51
2022/10/13 20:27:45;;;;;;;42.53;23.80;;;13.70;92.80;;;;;;5093952;28;20078;-52
2022/10/13 20:30:11;;;;;;;35.97;21.15;;;13.60;92.80;;;;;;5092355;28;20096;-50
2022/10/13 20:32:36;;;;;;;38.15;22.20;;;13.60;93.00;;;;;;5093605;28;20039;-53
2022/10/13 20:35:02;;;;;;;37.53;21.42;;;13.60;93.00;;;;;;5093755;28;20054;-52
2022/10/13 20:37:28;;;;;;;37.35;22.63;;;13.50;93.00;;;;;;5094013;28;20091;-48
2022/10/13 20:39:55;;;;;;;43.42;24.38;;;13.50;92.90;;;;;;5094421;28;20105;-50
2022/10/13 20:42:21;;;;;;;35.22;22.48;;;13.60;93.00;;;;;;5094042;28;20024;-50
2022/10/13 20:44:47;;;;;;;45.15;22.95;;;13.50;93.10;;;;;;5093582;28;20147;-51
2022/10/13 20:47:12;;;;;;;32.10;20.38;;;13.50;93.10;;;;;;5093191;28;20052;-51
2022/10/13 20:49:38;;;;;;;39.28;23.23;;;13.40;93.20;;;;;;5093156;28;20105;-48
2022/10/13 20:52:04;;;;;;;39.63;23.98;;;13.40;93.20;;;;;;5093163;28;20019;-49
2022/10/13 20:54:30;;;;;;;43.38;24.98;;;13.40;93.20;;;;;;5092937;28;20024;-50
2022/10/13 20:56:56;;;;;;;36.53;22.98;;;13.50;93.20;;;;;;5092548;28;20097;-51
2022/10/13 20:59:22;;;;;;;47.25;25.30;;;13.40;93.10;;;;;;5093296;28;20111;-54
2022/10/13 21:01:47;;;;;;;42.75;23.98;;;13.50;93.20;;;;;;5093729;28;20421;-51
2022/10/13 21:04:13;;;;;;;50.05;28.90;;;13.50;93.20;;;;;;5091582;28;20119;-51
2022/10/13 21:06:39;;;;;;;49.70;26.83;;;13.50;93.10;;;;;;5093033;28;20076;-49
2022/10/13 21:09:05;;;;;;;43.60;27.20;;;13.50;93.20;;;;;;5093046;28;20505;-51
2022/10/13 21:11:32;;;;;;;44.20;25.67;;;13.50;93.20;;;;;;5093271;28;20059;-52
2022/10/13 21:13:57;;;;;;;44.38;25.65;;;13.40;93.20;;;;;;5091666;28;20123;-50
2022/10/13 21:16:26;;;;;;;42.10;27.88;;;13.50;93.40;;;;;;5092924;28;20028;-50
2022/10/13 21:18:52;;;;;;;45.65;25.67;;;13.50;93.30;;;;;;5093159;28;20020;-51
2022/10/13 21:21:26;;;;;;;44.97;27.60;;;13.50;93.10;;;;;;5093527;28;20085;-50
2022/10/13 21:23:53;;;;;;;56.40;27.92;;;13.50;93.10;;;;;;5093129;28;20387;-50
2022/10/13 21:26:20;;;;;;;43.35;27.60;;;13.50;93.10;;;;;;5093148;28;20487;-51
2022/10/13 21:28:45;;;;;;;46.30;28.02;;;13.50;93.20;;;;;;5091386;28;20024;-50
2022/10/13 21:31:14;;;;;;;50.13;29.58;;;13.50;93.30;;;;;;5092828;28;20081;-50
2022/10/13 21:33:41;;;;;;;44.53;27.33;;;13.60;93.30;;;;;;5092737;28;20412;-49
2022/10/13 21:36:08;;;;;;;46.55;27.30;;;13.50;93.20;;;;;;5092771;28;20047;-49
2022/10/13 21:38:34;;;;;;;45.75;25.55;;;13.50;93.20;;;;;;5092674;28;20502;-51
2022/10/13 21:41:03;;;;;;;42.33;25.08;;;13.50;93.30;;;;;;5092903;28;20107;-49
2022/10/13 21:43:28;;;;;;;40.35;24.90;;;13.40;93.00;;;;;;5095204;28;20063;-48
2022/10/13 21:45:54;;;;;;;50.67;26.42;;;13.40;92.90;;;;;;5096621;28;20032;-49
2022/10/13 21:48:20;;;;;;;41.42;24.63;;;13.40;92.90;;;;;;5096700;28;20028;-50
2022/10/13 21:50:45;;;;;;;54.75;27.08;;;13.40;92.50;;;;;;5096694;28;20095;-52
2022/10/13 21:53:11;;;;;;;43.70;24.42;;;13.50;92.50;;;;;;5096525;28;20102;-52
2022/10/13 21:55:37;;;;;;;34.95;23.05;;;13.50;92.60;;;;;;5096024;28;20134;-53
2022/10/13 21:58:02;;;;;;;42.08;25.45;;;13.50;92.50;;;;;;5096237;28;20472;-50
2022/10/13 22:00:31;;;;;;;40.40;24.15;;;13.50;92.40;;;;;;5096555;28;20023;-50
2022/10/13 22:02:57;;;;;;;40.85;23.35;;;13.50;92.40;;;;;;5096422;28;20023;-49
2022/10/13 22:05:23;;;;;;;48.95;25.40;;;13.40;92.30;;;;;;5096084;28;20384;-48
2022/10/13 22:07:48;;;;;;;33.22;20.92;;;13.40;92.00;;;;;;5096236;28;20075;-49
2022/10/13 22:10:14;;;;;;;34.00;19.52;;;13.40;91.70;;;;;;5096009;28;20031;-50
2022/10/13 22:12:40;;;;;;;33.25;20.13;;;13.40;91.80;;;;;;5094843;28;20036;-49
2022/10/13 22:15:06;;;;;;;39.45;20.80;;;13.40;91.90;;;;;;5097165;28;20063;-39
2022/10/13 22:17:32;;;;;;;30.23;19.20;;;13.40;91.90;;;;;;5096111;28;20484;-39
2022/10/13 22:19:58;;;;;;;33.65;19.17;;;13.40;91.60;;;;;;5095937;28;20099;-40
2022/10/13 22:22:24;;;;;;;33.10;18.45;;;13.30;91.70;;;;;;5096331;28;20483;-39
2022/10/13 22:24:49;;;;;;;29.02;17.23;;;13.30;91.60;;;;;;5095887;28;20031;-39
2022/10/13 22:27:15;;;;;;;29.42;17.00;;;13.30;91.70;;;;;;5095773;28;20032;-39
2022/10/13 22:29:41;;;;;;;32.92;17.20;;;13.30;91.90;;;;;;5094650;28;20031;-40
2022/10/13 22:32:06;;;;;;;37.08;18.83;;;13.30;91.90;;;;;;5096045;28;20024;-39
2022/10/13 22:34:32;;;;;;;25.10;17.30;;;13.30;91.80;;;;;;5095884;28;20084;-39
2022/10/13 22:36:58;;;;;;;31.83;17.40;;;13.30;91.90;;;;;;5095871;28;20535;-40
2022/10/13 22:39:23;;;;;;;26.40;17.13;;;13.30;91.80;;;;;;5096249;28;20017;-39
2022/10/13 22:41:49;;;;;;;25.85;16.15;;;13.30;91.80;;;;;;5095544;28;20360;-39
2022/10/13 22:44:15;;;;;;;28.77;16.33;;;13.30;92.00;;;;;;5095446;28;20052;-40
2022/10/13 22:46:41;;;;;;;29.08;18.20;;;13.30;91.70;;;;;;5095389;28;20020;-39
2022/10/13 22:49:07;;;;;;;28.88;17.33;;;13.30;91.70;;;;;;5095245;28;20081;-39
2022/10/13 22:51:34;;;;;;;31.30;17.08;;;13.20;91.70;;;;;;5095587;28;20126;-39
2022/10/13 22:54:00;;;;;;;36.72;16.83;;;13.30;91.80;;;;;;5094996;28;20034;-39
2022/10/13 22:56:28;;;;;;;29.35;18.00;;;13.30;91.60;;;;;;5094993;28;20466;-38
2022/10/13 22:58:57;;;;;;;33.30;17.75;;;13.20;91.60;;;;;;5095058;28;20067;-40
2022/10/13 23:01:23;;;;;;;24.33;16.95;;;13.10;91.60;;;;;;5095945;28;20495;-38
2022/10/13 23:03:51;;;;;;;33.30;16.63;;;13.10;91.70;;;;;;5094190;28;20020;-39
2022/10/13 23:06:19;;;;;;;24.10;14.80;;;13.10;91.90;;;;;;5095151;28;20032;-39
2022/10/13 23:08:45;;;;;;;24.00;16.05;;;13.10;91.90;;;;;;5095036;28;20032;-39
2022/10/13 23:11:11;;;;;;;26.98;16.20;;;13.20;91.70;;;;;;5095439;28;20399;-39
2022/10/13 23:13:37;;;;;;;32.72;17.20;;;13.30;91.60;;;;;;5095011;28;20028;-38
2022/10/13 23:16:06;;;;;;;26.63;16.10;;;13.20;91.50;;;;;;5095094;28;20027;-39
2022/10/13 23:18:31;;;;;;;29.15;15.98;;;13.20;91.50;;;;;;5094828;28;20038;-38
2022/10/13 23:20:57;;;;;;;28.38;16.15;;;13.20;91.40;;;;;;5094641;28;20021;-39
2022/10/13 23:23:23;;;;;;;33.78;17.55;;;13.30;91.60;;;;;;5094662;28;20117;-39
2022/10/13 23:25:48;;;;;;;23.33;16.02;;;13.20;91.50;;;;;;5093653;28;20023;-39
2022/10/13 23:28:14;;;;;;;30.38;17.70;;;13.30;91.40;;;;;;5095156;28;20027;-39
2022/10/13 23:30:40;;;;;;;24.50;15.68;;;13.20;91.40;;;;;;5094808;28;20035;-39
2022/10/13 23:33:05;;;;;;;30.05;16.85;;;13.20;91.40;;;;;;5094343;28;20073;-39
2022/10/13 23:35:31;;;;;;;26.35;15.43;;;13.10;91.50;;;;;;5094267;28;20024;-40
2022/10/13 23:37:57;;;;;;;28.65;16.92;;;13.10;91.70;;;;;;5094569;28;20122;-39
2022/10/13 23:40:22;;;;;;;28.50;16.25;;;13.10;91.80;;;;;;5092826;28;20024;-39
2022/10/13 23:42:48;;;;;;;31.83;16.45;;;13.10;92.00;;;;;;5094355;28;20454;-39
2022/10/13 23:45:14;;;;;;;30.90;16.65;;;13.20;91.90;;;;;;5094112;28;20036;-39